Time;durP1;ratioP1;P1;durP2;ratioP2;P2;SDS_P1;SDS_P2;PMS_P1;PMS_P2;Temp;Humidity;BMP_temperature;BMP_pressure;BME280_temperature;BME280_humidity;BME280_pressure;Samples;Min_cycle;Max_cycle;Signal;HPM_P1;HPM_P2
2022/12/29 00:00:48;;;;;;;11.80;4.90;;;;;;;1.78;85.57;98686.13;213841;1312;22474;-76
2022/12/29 00:05:55;;;;;;;9.30;4.70;;;;;;;1.79;85.50;98672.27;213881;1311;22475;-75
2022/12/29 00:10:57;;;;;;;10.50;4.60;;;;;;;1.79;85.64;98656.46;214025;1312;24387;-76
2022/12/29 00:16:00;;;;;;;11.30;4.20;;;;;;;1.80;85.73;98658.42;213620;1310;22542;-75
2022/12/29 00:37:04;;;;;;;10.90;4.40;;;;;;;1.78;85.74;98616.98;213838;1312;22472;-75
2022/12/29 00:47:40;;;;;;;8.40;4.00;;;;;;;1.78;86.05;98605.30;213197;1312;22536;-75
2022/12/29 00:52:42;;;;;;;9.90;4.60;;;;;;;1.85;86.00;98602.44;213851;1312;25330;-78
2022/12/29 00:57:43;;;;;;;9.70;4.10;;;;;;;1.94;85.95;98603.81;213677;1312;24259;-75
2022/12/29 01:02:45;;;;;;;6.60;3.40;;;;;;;2.06;86.04;98600.87;213636;1312;24586;-76
2022/12/29 01:07:47;;;;;;;5.20;2.70;;;;;;;2.26;85.50;98613.48;213732;1302;22526;-75
2022/12/29 01:12:50;;;;;;;5.80;3.00;;;;;;;2.48;85.32;98624.90;213673;1312;23061;-75
2022/12/29 01:17:52;;;;;;;7.80;3.30;;;;;;;2.65;85.13;98640.45;213675;1312;22624;-75
2022/12/29 01:22:54;;;;;;;7.20;3.10;;;;;;;2.75;84.68;98638.71;213844;1312;22478;-75
2022/12/29 01:27:56;;;;;;;5.70;2.70;;;;;;;2.82;84.45;98633.42;213616;1312;22481;-75
2022/12/29 01:32:58;;;;;;;5.90;2.70;;;;;;;2.93;83.70;98629.00;213773;1312;23745;-74
2022/12/29 01:37:59;;;;;;;3.30;2.00;;;;;;;3.02;83.41;98623.45;213693;1312;22547;-75
2022/12/29 01:43:01;;;;;;;3.50;2.10;;;;;;;3.13;82.15;98622.98;213694;1312;25229;-76
2022/12/29 01:48:05;;;;;;;7.00;2.80;;;;;;;3.22;82.17;98621.88;213832;1312;22567;-75
2022/12/29 01:53:30;;;;;;;4.10;2.50;;;;;;;3.31;81.86;98617.25;213536;1312;24312;-75
2022/12/29 01:58:36;;;;;;;5.30;2.50;;;;;;;3.39;82.01;98599.45;213724;1312;25375;-73
2022/12/29 02:03:38;;;;;;;4.80;2.60;;;;;;;3.43;81.51;98586.63;213559;1312;22480;-75
2022/12/29 02:08:40;;;;;;;4.70;2.60;;;;;;;3.48;80.67;98593.42;213682;1301;22483;-75
2022/12/29 02:13:42;;;;;;;3.20;2.00;;;;;;;3.54;80.64;98597.68;213663;1312;22490;-75
2022/12/29 02:19:06;;;;;;;4.00;2.30;;;;;;;3.61;80.07;98596.02;213892;1312;22478;-76
2022/12/29 02:24:34;;;;;;;4.00;2.00;;;;;;;3.66;80.27;98595.54;213785;1310;24753;-74
2022/12/29 02:30:03;;;;;;;6.00;2.30;;;;;;;3.63;80.12;98590.20;213852;1312;22482;-75
2022/12/29 02:35:16;;;;;;;5.50;2.70;;;;;;;3.55;79.65;98605.02;213481;1312;22498;-76
2022/12/29 02:40:37;;;;;;;4.90;2.50;;;;;;;3.48;79.56;98597.88;213708;1307;22487;-76
2022/12/29 02:46:11;;;;;;;4.00;2.50;;;;;;;3.38;79.90;98595.73;213769;1312;24591;-75
2022/12/29 02:51:21;;;;;;;5.70;2.50;;;;;;;3.30;80.56;98593.56;213655;1312;26146;-75
2022/12/29 02:56:22;;;;;;;5.90;2.50;;;;;;;3.27;80.54;98598.66;213800;1312;23782;-76
2022/12/29 03:01:33;;;;;;;4.20;2.30;;;;;;;3.25;80.23;98580.21;213908;1312;25230;-75
2022/12/29 03:07:06;;;;;;;4.40;2.20;;;;;;;3.28;80.27;98570.98;213756;1312;24724;-75
2022/12/29 03:12:23;;;;;;;4.90;2.00;;;;;;;3.30;80.55;98571.27;213651;1312;22601;-75
2022/12/29 03:17:42;;;;;;;3.50;2.30;;;;;;;3.30;80.35;98565.66;213817;1312;25337;-77
2022/12/29 03:22:49;;;;;;;4.50;2.50;;;;;;;3.28;80.48;98569.08;213592;1312;22475;-75
2022/12/29 03:28:01;;;;;;;3.50;2.20;;;;;;;3.22;80.62;98557.73;213879;1312;24590;-75
2022/12/29 03:33:09;;;;;;;3.10;2.00;;;;;;;3.14;80.96;98545.65;213831;1312;22558;-75
2022/12/29 03:38:25;;;;;;;5.20;2.30;;;;;;;3.04;81.06;98541.19;213767;1312;22499;-75
2022/12/29 03:43:28;;;;;;;4.40;2.20;;;;;;;2.98;81.21;98534.59;213733;1312;22520;-75
2022/12/29 03:48:30;;;;;;;5.70;2.30;;;;;;;2.90;81.66;98530.31;213956;1312;24106;-75
2022/12/29 03:53:32;;;;;;;5.10;2.70;;;;;;;2.84;81.75;98524.30;213655;1304;22920;-75
2022/12/29 03:58:34;;;;;;;5.60;2.80;;;;;;;2.78;81.97;98513.10;213767;1312;23737;-75
2022/12/29 04:03:42;;;;;;;5.40;2.50;;;;;;;2.75;82.20;98513.95;213768;1306;22522;-76
2022/12/29 04:08:44;;;;;;;4.10;2.40;;;;;;;2.72;82.14;98509.02;214030;1308;22476;-74
2022/12/29 04:13:46;;;;;;;3.60;2.60;;;;;;;2.73;82.36;98509.60;213502;1312;22478;-75
2022/12/29 04:18:53;;;;;;;3.50;2.40;;;;;;;2.80;82.67;98516.14;213873;1308;22473;-74
2022/12/29 04:23:55;;;;;;;3.20;2.30;;;;;;;2.84;82.58;98504.04;213641;1312;22625;-76
2022/12/29 04:28:57;;;;;;;4.70;2.30;;;;;;;2.83;82.71;98498.25;213840;1312;22473;-76
2022/12/29 04:34:28;;;;;;;4.00;2.40;;;;;;;2.79;82.76;98488.89;213815;1310;22495;-75
2022/12/29 04:39:30;;;;;;;5.90;3.10;;;;;;;2.74;82.97;98493.90;213942;1312;22586;-75
2022/12/29 04:44:34;;;;;;;9.30;3.80;;;;;;;2.72;83.02;98495.88;213735;1312;24080;-75
2022/12/29 04:49:46;;;;;;;9.60;3.30;;;;;;;2.73;83.25;98489.55;213886;1311;23230;-73
2022/12/29 04:54:59;;;;;;;5.80;3.30;;;;;;;2.72;83.44;98488.48;213601;1312;22545;-75
2022/12/29 05:00:01;;;;;;;6.00;2.50;;;;;;;2.76;83.53;98482.86;213791;1312;25114;-75
2022/12/29 05:05:04;;;;;;;5.30;2.90;;;;;;;2.81;83.73;98483.04;213757;1312;25214;-75
2022/12/29 05:10:09;;;;;;;3.90;2.50;;;;;;;2.81;83.83;98494.83;213593;1312;22478;-76
2022/12/29 05:15:11;;;;;;;7.20;3.40;;;;;;;2.76;83.66;98500.65;213563;1312;22509;-75
2022/12/29 05:20:13;;;;;;;5.70;3.10;;;;;;;2.71;84.06;98495.93;213649;1312;23744;-74
2022/12/29 05:25:16;;;;;;;4.80;2.80;;;;;;;2.70;84.03;98486.11;213803;1312;22667;-75
2022/12/29 05:30:34;;;;;;;6.10;3.00;;;;;;;2.73;84.23;98480.55;213370;1312;22540;-76
2022/12/29 05:35:36;;;;;;;5.50;3.20;;;;;;;2.77;84.22;98482.45;213489;1310;22725;-75
2022/12/29 05:40:38;;;;;;;8.20;3.30;;;;;;;2.80;84.39;98479.92;213437;1311;24870;-77
2022/12/29 05:45:51;;;;;;;9.00;3.30;;;;;;;2.87;84.43;98490.02;213688;1307;22729;-75
2022/12/29 05:51:08;;;;;;;6.30;2.60;;;;;;;2.98;84.39;98489.14;213863;1312;22506;-76
2022/12/29 05:56:20;;;;;;;11.40;5.00;;;;;;;3.05;84.30;98483.03;213787;1312;22702;-75
2022/12/29 06:01:29;;;;;;;16.60;5.80;;;;;;;3.08;84.38;98478.10;213975;1312;25335;-75
2022/12/29 06:06:32;;;;;;;15.30;5.40;;;;;;;3.13;84.07;98465.13;213908;1302;26221;-76
2022/12/29 06:11:34;;;;;;;11.20;5.00;;;;;;;3.20;84.01;98462.63;213973;1308;22486;-74
2022/12/29 06:16:36;;;;;;;7.40;3.60;;;;;;;3.28;83.96;98459.99;213519;1312;22545;-75
2022/12/29 06:21:42;;;;;;;5.50;2.40;;;;;;;3.35;83.99;98460.49;213861;1312;22581;-75
2022/12/29 06:26:44;;;;;;;7.20;2.80;;;;;;;3.41;83.72;98444.53;213932;1311;22497;-75
2022/12/29 06:31:48;;;;;;;5.50;2.70;;;;;;;3.45;83.60;98436.08;213650;1312;24285;-76
2022/12/29 06:36:51;;;;;;;8.00;3.00;;;;;;;3.49;83.57;98436.33;213629;1312;22655;-75
2022/12/29 06:41:53;;;;;;;5.70;2.90;;;;;;;3.52;83.68;98438.85;213786;1295;22468;-76
2022/12/29 06:47:14;;;;;;;5.70;3.00;;;;;;;3.57;83.66;98441.18;214048;1291;23200;-75
2022/12/29 06:52:15;;;;;;;7.70;3.30;;;;;;;3.62;83.72;98436.78;214046;1280;24434;-75
2022/12/29 06:57:17;;;;;;;8.20;3.10;;;;;;;3.68;83.18;98441.28;214129;1312;23748;-77
2022/12/29 07:02:19;;;;;;;6.70;3.20;;;;;;;3.74;82.93;98454.73;214328;1289;23429;-75
2022/12/29 07:07:22;;;;;;;6.40;3.20;;;;;;;3.81;82.42;98459.36;213886;1283;139605;-75
2022/12/29 07:12:23;;;;;;;8.10;3.20;;;;;;;3.90;81.94;98468.61;214636;1283;138441;-74
2022/12/29 07:17:25;;;;;;;7.60;3.60;;;;;;;3.93;81.37;98468.05;214229;1287;138930;-75
2022/12/29 07:22:27;;;;;;;6.90;2.70;;;;;;;3.93;81.31;98468.64;214185;1283;138558;-74
2022/12/29 07:27:29;;;;;;;7.60;3.50;;;;;;;3.88;81.31;98471.72;214187;1294;22608;-75
2022/12/29 07:32:34;;;;;;;5.00;2.90;;;;;;;3.86;81.78;98485.70;214056;1287;138010;-75
2022/12/29 07:37:35;;;;;;;5.80;3.20;;;;;;;3.82;82.09;98485.38;213901;1291;138420;-74
2022/12/29 07:42:37;;;;;;;6.60;3.40;;;;;;;3.76;81.83;98479.23;214144;1280;138355;-74
2022/12/29 07:47:42;;;;;;;6.50;3.00;;;;;;;3.71;82.16;98466.73;214199;1287;138466;-75
2022/12/29 07:52:44;;;;;;;7.90;3.50;;;;;;;3.69;82.40;98447.44;214075;1288;138408;-74
2022/12/29 07:57:46;;;;;;;10.30;4.00;;;;;;;3.67;82.14;98427.38;213956;1296;22703;-74
2022/12/29 08:02:49;;;;;;;8.00;3.70;;;;;;;3.66;82.44;98430.67;213854;1297;138815;-75
2022/12/29 08:07:51;;;;;;;6.90;3.30;;;;;;;3.71;82.25;98430.34;213870;1300;138229;-75
2022/12/29 08:12:53;;;;;;;7.20;3.40;;;;;;;3.80;81.93;98442.55;214093;1294;138574;-76
2022/12/29 08:17:54;;;;;;;8.30;3.70;;;;;;;3.88;82.15;98441.66;213719;1297;138406;-75
2022/12/29 08:22:56;;;;;;;8.00;3.80;;;;;;;3.97;82.18;98444.13;214042;1288;138392;-75
2022/12/29 08:27:58;;;;;;;9.00;4.40;;;;;;;4.03;81.79;98455.04;214210;1302;22860;-76
2022/12/29 08:33:00;;;;;;;6.20;3.50;;;;;;;4.11;81.85;98459.71;214049;1294;138736;-76
2022/12/29 08:38:01;;;;;;;8.10;3.80;;;;;;;4.22;81.83;98458.84;214032;1291;139226;-76
2022/12/29 08:43:03;;;;;;;7.60;4.30;;;;;;;4.32;81.71;98460.44;213886;1288;138479;-75
2022/12/29 08:48:05;;;;;;;9.70;4.40;;;;;;;4.39;80.82;98476.30;213835;1303;138629;-75
2022/12/29 08:53:07;;;;;;;8.50;4.80;;;;;;;4.47;80.63;98482.83;213875;1293;138816;-75
2022/12/29 08:58:08;;;;;;;10.90;4.90;;;;;;;4.62;80.83;98477.83;214091;1306;25332;-76
2022/12/29 09:03:12;;;;;;;10.00;4.80;;;;;;;4.82;80.53;98490.52;213861;1312;138760;-75
2022/12/29 09:08:15;;;;;;;9.10;5.00;;;;;;;5.00;80.27;98486.64;213811;1312;138553;-77
2022/12/29 09:13:24;;;;;;;9.70;4.50;;;;;;;5.16;80.21;98485.05;214101;1288;138331;-75
2022/12/29 09:18:26;;;;;;;13.80;5.80;;;;;;;5.42;79.84;98489.14;213835;1286;138680;-75
2022/12/29 09:23:28;;;;;;;8.30;5.10;;;;;;;5.70;79.52;98483.88;213741;1293;138719;-74
2022/12/29 09:28:30;;;;;;;10.90;5.90;;;;;;;5.86;78.84;98470.40;214228;1287;138890;-75
2022/12/29 09:33:34;;;;;;;11.00;5.60;;;;;;;5.93;78.77;98477.80;214468;1288;22655;-74
2022/12/29 09:38:36;;;;;;;9.60;4.30;;;;;;;6.02;78.72;98470.02;213834;1288;138279;-75
2022/12/29 09:43:53;;;;;;;8.80;5.00;;;;;;;6.04;77.41;98469.22;213993;1287;138563;-74
2022/12/29 09:49:30;;;;;;;10.30;5.10;;;;;;;6.05;77.81;98473.42;214032;1288;139091;-72
2022/12/29 09:54:32;;;;;;;11.30;4.70;;;;;;;6.15;77.96;98476.23;214088;1296;138572;-74
2022/12/29 09:59:45;;;;;;;8.80;4.50;;;;;;;6.30;77.15;98472.14;214216;1287;138482;-74
2022/12/29 10:04:47;;;;;;;8.80;4.80;;;;;;;6.37;76.61;98458.40;213948;1290;138451;-74
2022/12/29 10:10:00;;;;;;;7.90;4.60;;;;;;;6.40;76.90;98445.30;214296;1286;22536;-75
2022/12/29 10:15:20;;;;;;;10.20;5.30;;;;;;;6.42;76.91;98428.38;213852;1312;138186;-75
2022/12/29 10:20:38;;;;;;;12.30;4.80;;;;;;;6.48;77.49;98426.78;214083;1281;138548;-76
2022/12/29 10:25:42;;;;;;;11.00;4.80;;;;;;;6.65;77.72;98433.80;213872;1284;138652;-74
2022/12/29 10:30:47;;;;;;;8.30;4.50;;;;;;;6.77;77.37;98431.77;213941;1287;138998;-75
2022/12/29 10:35:50;;;;;;;8.50;4.80;;;;;;;6.86;77.40;98419.05;214325;1288;138721;-74
2022/12/29 10:41:08;;;;;;;8.80;4.50;;;;;;;6.95;77.00;98423.02;213699;1289;137451;-75
2022/12/29 10:46:14;;;;;;;7.40;4.60;;;;;;;6.99;75.63;98423.30;214103;1288;22959;-76
2022/12/29 10:51:30;;;;;;;11.00;5.50;;;;;;;7.03;75.78;98419.50;214166;1284;138201;-75
2022/12/29 10:56:38;;;;;;;8.50;5.30;;;;;;;7.06;75.56;98410.86;214039;1287;139040;-75
2022/12/29 11:02:06;;;;;;;10.40;5.20;;;;;;;7.08;75.42;98401.00;214019;1312;138610;-75
2022/12/29 11:07:11;;;;;;;10.30;5.40;;;;;;;7.12;75.38;98404.77;213994;1312;137795;-76
2022/12/29 11:12:29;;;;;;;10.90;5.40;;;;;;;7.21;76.06;98405.73;214487;1291;138652;-77
2022/12/29 11:17:43;;;;;;;9.80;4.90;;;;;;;7.31;75.56;98408.61;214333;1287;138613;-76
2022/12/29 11:22:47;;;;;;;9.20;4.70;;;;;;;7.39;75.41;98405.83;214343;1294;138367;-75
2022/12/29 11:28:14;;;;;;;7.30;4.00;;;;;;;7.47;75.52;98409.63;214486;1287;25402;-76
2022/12/29 11:33:17;;;;;;;7.60;4.50;;;;;;;7.57;75.52;98405.08;213978;1296;138063;-76
2022/12/29 11:38:23;;;;;;;8.80;4.90;;;;;;;7.65;75.09;98401.40;213959;1300;138684;-77
2022/12/29 11:43:37;;;;;;;9.50;4.70;;;;;;;7.78;75.00;98400.07;213968;1298;138785;-76
2022/12/29 11:48:41;;;;;;;9.20;4.70;;;;;;;7.94;75.09;98396.32;214006;1288;138527;-77
2022/12/29 11:53:49;;;;;;;7.90;4.50;;;;;;;8.06;74.50;98400.80;214194;1298;138601;-76
2022/12/29 11:58:53;;;;;;;9.00;5.00;;;;;;;8.16;74.28;98417.16;214338;1296;138678;-76
2022/12/29 12:04:10;;;;;;;8.50;4.90;;;;;;;8.23;73.76;98423.77;214016;1294;22522;-75
2022/12/29 12:09:29;;;;;;;9.10;4.40;;;;;;;8.28;74.33;98424.25;214158;1298;138266;-76
2022/12/29 12:14:59;;;;;;;9.30;4.60;;;;;;;8.24;72.83;98420.23;214215;1287;137590;-76
2022/12/29 12:20:17;;;;;;;9.90;4.30;;;;;;;8.21;73.65;98409.78;214154;1287;139336;-76
2022/12/29 12:25:39;;;;;;;8.00;4.20;;;;;;;8.18;72.83;98400.43;214149;1283;138720;-78
2022/12/29 12:30:47;;;;;;;8.90;4.10;;;;;;;8.17;73.16;98371.34;214107;1283;138633;-77
2022/12/29 12:36:08;;;;;;;7.10;4.10;;;;;;;8.22;72.98;98362.81;214065;1281;138564;-77
2022/12/29 12:41:17;;;;;;;8.00;3.90;;;;;;;8.31;72.54;98342.08;214369;1283;138595;-76
2022/12/29 12:46:57;;;;;;;6.80;4.20;;;;;;;8.38;72.12;98342.86;214286;1289;24480;-79
2022/12/29 12:52:21;;;;;;;7.50;4.30;;;;;;;8.40;72.12;98369.52;214129;1296;22632;-77
2022/12/29 12:58:00;;;;;;;7.00;4.20;;;;;;;8.38;70.99;98363.55;214206;1297;138099;-76
2022/12/29 13:03:34;;;;;;;7.80;3.90;;;;;;;8.45;71.67;98363.14;214179;1312;138494;-77
2022/12/29 13:08:57;;;;;;;5.60;4.00;;;;;;;8.47;71.51;98359.55;214217;1288;137707;-76
2022/12/29 13:14:36;;;;;;;7.20;4.10;;;;;;;8.48;71.89;98356.02;214315;1281;137489;-74
2022/12/29 13:19:47;;;;;;;7.00;4.30;;;;;;;8.53;72.91;98350.94;214383;1298;138117;-73
2022/12/29 13:25:21;;;;;;;12.20;5.60;;;;;;;8.55;72.87;98350.17;214150;1290;137528;-76
2022/12/29 13:30:33;;;;;;;10.40;5.00;;;;;;;8.54;73.65;98353.75;214874;1297;139145;-76
2022/12/29 13:36:04;;;;;;;10.40;5.20;;;;;;;8.51;73.33;98365.85;214160;1297;139318;-76
2022/12/29 13:41:08;;;;;;;;;;;;;;;8.43;73.41;98368.38;214080;1288;139007;-76
2022/12/29 13:46:26;;;;;;;10.00;5.10;;;;;;;8.34;73.90;98369.25;214221;1288;25266;-75
2022/12/29 13:51:29;;;;;;;10.10;5.10;;;;;;;8.24;73.81;98375.20;214252;1288;138245;-76
2022/12/29 13:56:39;;;;;;;8.30;4.50;;;;;;;8.08;74.11;98378.33;214280;1281;138636;-74
2022/12/29 14:02:00;;;;;;;10.20;5.40;;;;;;;7.95;74.54;98379.02;214455;1297;138618;-75
2022/12/29 14:07:03;;;;;;;11.50;5.40;;;;;;;7.83;75.14;98382.33;213982;1280;139090;-75
2022/12/29 14:12:21;;;;;;;10.20;5.30;;;;;;;7.69;75.59;98388.41;214172;1291;139224;-76
2022/12/29 14:17:23;;;;;;;12.40;6.10;;;;;;;7.55;76.13;98390.27;213917;1292;140225;-74
2022/12/29 14:22:26;;;;;;;9.80;5.80;;;;;;;7.43;76.57;98392.65;214234;1288;25442;-76
2022/12/29 14:27:51;;;;;;;11.70;6.20;;;;;;;7.30;77.27;98396.58;214219;1282;24140;-75
2022/12/29 14:33:11;;;;;;;12.50;6.30;;;;;;;7.17;77.95;98381.62;214075;1289;139082;-74
2022/12/29 14:38:17;;;;;;;10.80;5.90;;;;;;;7.11;78.38;98381.33;214482;1288;139345;-76
2022/12/29 14:43:25;;;;;;;15.10;6.50;;;;;;;7.13;78.66;98382.59;213955;1286;139290;-75
2022/12/29 14:48:33;;;;;;;11.70;6.40;;;;;;;7.16;78.88;98387.80;214519;1284;139769;-74
2022/12/29 14:53:50;;;;;;;11.40;6.20;;;;;;;7.19;79.05;98394.87;214507;1288;139054;-75
2022/12/29 14:59:00;;;;;;;21.10;7.80;;;;;;;7.25;79.08;98405.35;213948;1288;138591;-76
2022/12/29 15:04:17;;;;;;;13.80;7.20;;;;;;;7.27;79.00;98395.90;214071;1312;24472;-75
2022/12/29 15:09:36;;;;;;;11.40;6.70;;;;;;;7.22;78.69;98397.31;214022;1311;137242;-75
2022/12/29 15:14:48;;;;;;;14.40;6.80;;;;;;;7.16;78.85;98390.46;213908;1288;138679;-77
2022/12/29 15:19:50;;;;;;;9.20;5.40;;;;;;;7.10;78.92;98392.10;213940;1288;22481;-76
2022/12/29 15:24:54;;;;;;;12.20;5.50;;;;;;;7.05;79.37;98390.95;213496;1312;25459;-76
2022/12/29 15:30:13;;;;;;;11.80;6.00;;;;;;;7.01;79.48;98385.70;213556;1312;23787;-77
2022/12/29 15:35:23;;;;;;;10.80;6.30;;;;;;;6.95;79.48;98386.15;213925;1312;25338;-76
2022/12/29 15:40:31;;;;;;;13.80;6.60;;;;;;;6.90;79.71;98382.77;213707;1312;25531;-76
2022/12/29 15:45:35;;;;;;;14.20;6.40;;;;;;;6.89;80.02;98385.70;213635;1312;22476;-76
2022/12/29 15:50:37;;;;;;;10.80;5.70;;;;;;;6.90;80.01;98392.83;213630;1312;25135;-76
2022/12/29 15:55:42;;;;;;;14.60;6.80;;;;;;;6.91;80.08;98387.55;213897;1298;22610;-75
2022/12/29 16:00:49;;;;;;;13.60;6.50;;;;;;;6.92;80.15;98396.34;213946;1312;25360;-75
2022/12/29 16:06:09;;;;;;;11.20;6.30;;;;;;;6.92;80.09;98389.89;213904;1312;22662;-76
2022/12/29 16:11:26;;;;;;;12.70;6.80;;;;;;;6.90;79.87;98387.77;213766;1312;25396;-76
2022/12/29 16:16:48;;;;;;;12.20;6.80;;;;;;;6.86;79.77;98398.23;213818;1312;22558;-75
2022/12/29 16:21:50;;;;;;;13.60;7.10;;;;;;;6.80;79.92;98399.05;213692;1312;24272;-75
2022/12/29 16:26:59;;;;;;;12.00;7.00;;;;;;;6.73;80.35;98403.98;213703;1312;25318;-76
2022/12/29 16:32:05;;;;;;;15.00;7.80;;;;;;;6.67;80.67;98404.42;213564;1312;25311;-76
2022/12/29 16:37:28;;;;;;;14.40;7.80;;;;;;;6.63;80.61;98406.72;213811;1312;24398;-77
2022/12/29 16:42:39;;;;;;;13.40;7.30;;;;;;;6.60;80.74;98403.48;213803;1311;22740;-77
2022/12/29 16:48:09;;;;;;;13.20;6.90;;;;;;;6.57;80.85;98396.31;213907;1312;22469;-76
2022/12/29 16:53:25;;;;;;;12.10;6.20;;;;;;;6.56;80.43;98392.38;213847;1312;22606;-76
2022/12/29 16:58:31;;;;;;;12.70;6.80;;;;;;;6.59;80.06;98389.06;213809;1312;23025;-76
2022/12/29 17:03:39;;;;;;;14.20;7.20;;;;;;;6.58;79.94;98387.58;213790;1312;22478;-75
2022/12/29 17:08:42;;;;;;;13.10;6.30;;;;;;;6.53;79.78;98387.69;214073;1291;23338;-76
2022/12/29 17:13:44;;;;;;;12.20;7.00;;;;;;;6.50;79.95;98395.20;213891;1312;25388;-76
2022/12/29 17:18:46;;;;;;;15.20;7.30;;;;;;;6.46;79.90;98389.73;213858;1312;22479;-76
2022/12/29 17:23:47;;;;;;;14.20;6.20;;;;;;;6.42;80.12;98394.59;213568;1312;22529;-77
2022/12/29 17:28:49;;;;;;;14.30;6.10;;;;;;;6.38;80.24;98389.59;213832;1312;22937;-77
2022/12/29 17:33:52;;;;;;;9.90;6.10;;;;;;;6.35;80.29;98392.38;213757;1312;22504;-77
2022/12/29 17:38:53;;;;;;;11.90;6.20;;;;;;;6.31;79.87;98392.55;213587;1312;24299;-77
2022/12/29 17:43:58;;;;;;;9.40;5.40;;;;;;;6.28;79.98;98385.95;213732;1312;24442;-77
2022/12/29 17:49:00;;;;;;;8.20;5.20;;;;;;;6.21;79.94;98383.56;213730;1311;22489;-76
2022/12/29 17:54:01;;;;;;;10.60;5.20;;;;;;;6.15;80.05;98383.63;213586;1312;24407;-75
2022/12/29 17:59:10;;;;;;;10.70;5.50;;;;;;;6.11;79.85;98385.13;213664;1310;22492;-75
2022/12/29 18:04:17;;;;;;;11.30;6.10;;;;;;;6.07;80.53;98390.02;213857;1312;22607;-76
2022/12/29 18:09:21;;;;;;;9.80;5.50;;;;;;;6.05;80.67;98397.42;213691;1312;24244;-76
2022/12/29 18:14:24;;;;;;;11.30;6.10;;;;;;;6.04;80.28;98389.17;213789;1312;22947;-77
2022/12/29 18:19:26;;;;;;;12.10;6.00;;;;;;;6.03;80.53;98393.32;213913;1312;22589;-77
2022/12/29 18:24:36;;;;;;;11.00;6.00;;;;;;;6.01;80.70;98396.47;214036;1312;22548;-77
2022/12/29 18:29:39;;;;;;;14.80;6.80;;;;;;;6.00;80.44;98402.58;213863;1312;22753;-76
2022/12/29 18:34:42;;;;;;;13.00;6.70;;;;;;;6.00;80.59;98410.66;214029;1312;22502;-77
2022/12/29 18:39:43;;;;;;;13.40;7.50;;;;;;;5.96;80.90;98408.68;213828;1312;23243;-76
2022/12/29 18:44:46;;;;;;;13.40;6.60;;;;;;;5.93;80.93;98404.52;213855;1312;25333;-77
2022/12/29 18:49:47;;;;;;;14.70;6.70;;;;;;;5.87;81.18;98405.91;213616;1311;23756;-76
2022/12/29 18:54:49;;;;;;;14.70;6.70;;;;;;;5.83;81.26;98416.86;213613;1312;24388;-78
2022/12/29 18:59:51;;;;;;;11.00;6.40;;;;;;;5.83;81.31;98418.83;213670;1312;22521;-77
2022/12/29 19:04:53;;;;;;;13.30;6.70;;;;;;;5.81;81.43;98415.42;213659;1312;22475;-75
2022/12/29 19:10:03;;;;;;;12.60;6.60;;;;;;;5.79;81.40;98411.23;213840;1311;22473;-76
2022/12/29 19:15:06;;;;;;;11.40;6.30;;;;;;;5.77;81.37;98400.86;213681;1312;22596;-76
2022/12/29 19:20:38;;;;;;;12.20;6.60;;;;;;;5.74;81.51;98409.94;213624;1312;22516;-75
2022/12/29 19:25:40;;;;;;;12.80;6.50;;;;;;;5.70;81.65;98413.84;213689;1312;25243;-76
2022/12/29 19:30:42;;;;;;;9.90;5.90;;;;;;;5.70;81.79;98416.11;213591;1312;22482;-76
2022/12/29 19:35:44;;;;;;;14.80;7.30;;;;;;;5.70;81.76;98421.58;213849;1307;25317;-77
2022/12/29 19:40:47;;;;;;;13.30;7.20;;;;;;;5.68;81.88;98428.49;213669;1312;24254;-75
2022/12/29 19:45:51;;;;;;;15.90;7.10;;;;;;;5.61;81.76;98432.58;213725;1312;25431;-75
2022/12/29 19:50:53;;;;;;;12.70;6.90;;;;;;;5.51;82.23;98428.58;213731;1312;23902;-76
2022/12/29 19:55:54;;;;;;;15.10;7.20;;;;;;;5.39;82.31;98415.74;213827;1312;23064;-75
2022/12/29 20:01:05;;;;;;;15.50;7.40;;;;;;;5.27;82.54;98420.93;213970;1312;25233;-76
2022/12/29 20:06:10;;;;;;;12.60;7.30;;;;;;;5.19;82.93;98425.63;213694;1312;24357;-75
2022/12/29 20:11:15;;;;;;;14.10;7.50;;;;;;;5.13;83.01;98437.30;213477;1312;22471;-76
2022/12/29 20:16:18;;;;;;;13.50;7.20;;;;;;;5.07;83.18;98427.66;214008;1312;24461;-75
2022/12/29 20:21:23;;;;;;;14.90;7.70;;;;;;;5.01;83.36;98425.10;213837;1312;25229;-75
2022/12/29 20:26:27;;;;;;;15.40;6.70;;;;;;;4.95;83.44;98410.38;213625;1312;25245;-76
2022/12/29 20:31:33;;;;;;;13.80;7.30;;;;;;;4.88;83.56;98398.67;213757;1312;26813;-77
2022/12/29 20:36:39;;;;;;;11.00;5.90;;;;;;;4.83;83.76;98389.88;213779;1312;22718;-75
2022/12/29 20:41:43;;;;;;;16.30;7.80;;;;;;;4.81;83.95;98396.88;213622;1312;22656;-76
2022/12/29 20:46:45;;;;;;;18.10;7.90;;;;;;;4.79;84.27;98403.36;213738;1312;24084;-76
2022/12/29 20:51:47;;;;;;;17.80;7.50;;;;;;;4.77;83.96;98403.45;213692;1312;24353;-77
2022/12/29 20:57:07;;;;;;;13.60;6.80;;;;;;;4.76;84.29;98404.19;213725;1309;22485;-76
2022/12/29 21:02:22;;;;;;;13.50;6.50;;;;;;;4.77;84.14;98407.91;213898;1312;24440;-76
2022/12/29 21:07:24;;;;;;;12.80;6.50;;;;;;;4.78;84.34;98412.38;213510;1312;22494;-75
2022/12/29 21:12:26;;;;;;;11.80;7.00;;;;;;;4.80;84.19;98415.89;213740;1312;24421;-73
2022/12/29 21:17:28;;;;;;;12.70;6.30;;;;;;;4.82;84.33;98414.40;213827;1312;25331;-74
2022/12/29 21:22:30;;;;;;;13.00;6.40;;;;;;;4.82;84.39;98420.23;213702;1312;23794;-73
2022/12/29 21:27:32;;;;;;;13.20;6.20;;;;;;;4.83;84.23;98419.09;213802;1312;22486;-73
2022/12/29 21:32:34;;;;;;;11.50;6.30;;;;;;;4.85;84.08;98418.09;213642;1312;25325;-73
2022/12/29 21:37:36;;;;;;;10.90;6.10;;;;;;;4.87;84.12;98420.47;213764;1312;22466;-74
2022/12/29 21:42:38;;;;;;;11.90;5.50;;;;;;;4.86;84.55;98418.08;213836;1286;22989;-74
2022/12/29 21:53:00;;;;;;;10.60;6.00;;;;;;;4.87;84.33;98428.28;213840;1312;24444;-74
2022/12/29 22:14:09;;;;;;;12.10;6.60;;;;;;;4.85;84.15;98440.91;213641;1307;22509;-74
2022/12/29 22:19:11;;;;;;;14.10;6.40;;;;;;;4.82;84.44;98446.73;213764;1312;26393;-73
2022/12/29 22:24:13;;;;;;;12.10;6.40;;;;;;;4.74;84.27;98447.86;213829;1312;22709;-74
2022/12/29 22:29:15;;;;;;;12.20;6.00;;;;;;;4.68;84.47;98457.75;213647;1312;22508;-75
2022/12/29 22:34:18;;;;;;;15.80;7.70;;;;;;;4.60;84.55;98468.96;213952;1307;24983;-74
2022/12/29 22:39:20;;;;;;;13.10;7.60;;;;;;;4.51;84.93;98477.98;213663;1312;26164;-74
2022/12/29 22:44:22;;;;;;;15.00;7.40;;;;;;;4.43;84.79;98487.05;213567;1312;160944;-73
2022/12/29 22:49:23;;;;;;;14.60;8.30;;;;;;;4.39;85.31;98487.82;213825;1312;24278;-74
2022/12/29 22:54:25;;;;;;;15.60;7.50;;;;;;;4.33;85.61;98469.41;213388;1312;22530;-74
2022/12/29 22:59:27;;;;;;;14.20;7.60;;;;;;;4.25;85.99;98465.65;213812;1312;25368;-75
2022/12/29 23:04:29;;;;;;;15.40;6.80;;;;;;;4.17;86.05;98466.17;213802;1312;22478;-73
2022/12/29 23:09:50;;;;;;;12.30;7.00;;;;;;;4.10;86.03;98457.38;213796;1306;23397;-73
2022/12/29 23:14:52;;;;;;;16.70;8.30;;;;;;;4.06;86.74;98458.04;213562;1312;24390;-75
2022/12/29 23:19:54;;;;;;;14.40;7.30;;;;;;;4.03;86.81;98450.64;213745;1312;24488;-74
2022/12/29 23:24:56;;;;;;;15.90;7.60;;;;;;;4.00;86.67;98451.19;213699;1312;22607;-72
2022/12/29 23:29:57;;;;;;;14.60;6.30;;;;;;;3.97;86.93;98441.63;213931;1312;22518;-74
2022/12/29 23:34:59;;;;;;;14.90;6.90;;;;;;;3.97;87.34;98444.81;213958;1312;22745;-74
2022/12/29 23:40:01;;;;;;;12.70;6.00;;;;;;;3.97;87.12;98442.38;213823;1303;22602;-73
2022/12/29 23:45:04;;;;;;;11.80;6.30;;;;;;;4.03;87.54;98431.34;213622;1312;25302;-76
2022/12/29 23:50:07;;;;;;;11.10;6.30;;;;;;;4.12;87.58;98431.67;213839;1312;25470;-73
2022/12/29 23:55:09;;;;;;;12.50;5.70;;;;;;;4.20;87.49;98432.79;213949;1312;22489;-73
